Time;durP1;ratioP1;P1;durP2;ratioP2;P2;SDS_P1;SDS_P2;PMS_P1;PMS_P2;Temp;Humidity;BMP_temperature;BMP_pressure;BME280_temperature;BME280_humidity;BME280_pressure;Samples;Min_cycle;Max_cycle;Signal;HPM_P1;HPM_P2
2024/01/11 00:00:29;;;;;;;38.73;21.40;;;-4.30;99.90;;;;;;5097021;28;20624;-79
2024/01/11 00:02:54;;;;;;;32.93;19.23;;;-4.40;99.90;;;;;;5096800;28;20183;-79
2024/01/11 00:05:21;;;;;;;39.73;20.63;;;-4.30;99.90;;;;;;5096616;28;20183;-79
2024/01/11 00:07:46;;;;;;;37.83;21.77;;;-4.40;99.90;;;;;;5096278;28;20285;-79
2024/01/11 00:10:12;;;;;;;38.20;21.00;;;-4.40;99.90;;;;;;5096233;28;20659;-79
2024/01/11 00:12:38;;;;;;;37.73;20.57;;;-4.40;99.90;;;;;;5096553;28;20211;-79
2024/01/11 00:15:03;;;;;;;36.30;20.37;;;-4.30;99.90;;;;;;5095706;28;20170;-78
2024/01/11 00:17:29;;;;;;;37.40;20.93;;;-4.40;99.90;;;;;;5103621;28;20652;-78
2024/01/11 00:19:54;;;;;;;35.67;20.17;;;-4.40;99.90;;;;;;5104095;28;20170;-78
2024/01/11 00:22:20;;;;;;;38.97;21.13;;;-4.40;99.90;;;;;;5097817;28;20166;-81
2024/01/11 00:24:45;;;;;;;37.23;19.90;;;-4.30;99.90;;;;;;5096501;28;20636;-80
2024/01/11 00:27:11;;;;;;;39.37;21.87;;;-4.40;99.90;;;;;;5096150;28;20686;-81
2024/01/11 00:29:36;;;;;;;40.83;21.40;;;-4.40;99.90;;;;;;5095980;28;20205;-81
2024/01/11 00:32:02;;;;;;;37.37;20.17;;;-4.40;99.90;;;;;;5095484;28;20198;-81
2024/01/11 00:34:28;;;;;;;38.63;19.20;;;-4.50;99.90;;;;;;5095377;28;20166;-80
2024/01/11 00:36:54;;;;;;;35.23;19.30;;;-4.50;99.90;;;;;;5096120;28;20194;-80
2024/01/11 00:39:19;;;;;;;37.90;20.50;;;-4.50;99.90;;;;;;5097624;28;20669;-78
2024/01/11 00:41:44;;;;;;;34.97;20.13;;;-4.50;99.90;;;;;;5097472;28;20171;-80
2024/01/11 00:44:10;;;;;;;34.23;20.07;;;-4.50;99.90;;;;;;5096272;28;20185;-79
2024/01/11 00:46:38;;;;;;;41.17;21.53;;;-4.50;99.90;;;;;;5096440;28;20562;-80
2024/01/11 00:49:03;;;;;;;35.60;20.03;;;-4.50;99.90;;;;;;5094431;28;20222;-78
2024/01/11 00:51:29;;;;;;;40.83;21.40;;;-4.50;99.90;;;;;;5096312;28;20174;-78
2024/01/11 00:53:54;;;;;;;35.73;20.13;;;-4.50;99.90;;;;;;5096259;28;20167;-78
2024/01/11 00:56:21;;;;;;;36.30;20.10;;;-4.50;99.90;;;;;;5094691;28;20186;-80
2024/01/11 00:58:47;;;;;;;36.37;19.67;;;-4.50;99.90;;;;;;5094276;28;20181;-79
2024/01/11 01:01:13;;;;;;;35.40;20.13;;;-4.50;99.90;;;;;;5095622;28;20172;-78
2024/01/11 01:03:39;;;;;;;36.53;20.47;;;-4.50;99.90;;;;;;5094174;28;20201;-78
2024/01/11 01:06:05;;;;;;;36.27;20.10;;;-4.50;99.90;;;;;;5095111;28;20197;-79
2024/01/11 01:08:30;;;;;;;34.23;19.57;;;-4.60;99.90;;;;;;5095601;28;20201;-80
2024/01/11 01:10:56;;;;;;;36.30;20.70;;;-4.50;99.90;;;;;;5095328;28;20528;-81
2024/01/11 01:13:22;;;;;;;39.60;20.70;;;-4.50;99.90;;;;;;5095677;28;20164;-79
2024/01/11 01:15:47;;;;;;;39.40;19.63;;;-4.50;99.90;;;;;;5095439;28;20616;-78
2024/01/11 01:18:13;;;;;;;38.30;20.40;;;-4.50;99.90;;;;;;5093908;28;20649;-79
2024/01/11 01:20:38;;;;;;;37.83;19.53;;;-4.50;99.90;;;;;;5095124;28;20545;-79
2024/01/11 01:23:04;;;;;;;40.13;21.10;;;-4.50;99.90;;;;;;5095002;28;20176;-79
2024/01/11 01:25:30;;;;;;;35.23;20.23;;;-4.60;99.90;;;;;;5097934;28;20243;-78
2024/01/11 01:27:56;;;;;;;36.67;20.17;;;-4.60;99.90;;;;;;5099455;28;20198;-79
2024/01/11 01:30:23;;;;;;;35.20;20.50;;;-4.70;99.90;;;;;;5099480;28;20254;-79
2024/01/11 01:32:48;;;;;;;38.23;20.30;;;-4.70;99.90;;;;;;5100796;28;20193;-79
2024/01/11 01:35:14;;;;;;;34.63;19.67;;;-4.70;99.90;;;;;;5100489;28;20175;-79
2024/01/11 01:37:39;;;;;;;37.77;21.37;;;-4.70;99.90;;;;;;5100436;28;20225;-79
2024/01/11 01:40:07;;;;;;;38.67;20.03;;;-4.80;99.90;;;;;;5099089;28;20167;-79
2024/01/11 01:42:33;;;;;;;36.87;19.80;;;-4.70;99.90;;;;;;5100091;28;20167;-79
2024/01/11 01:44:58;;;;;;;42.63;21.40;;;-4.70;99.90;;;;;;5098482;28;20185;-79
2024/01/11 01:47:25;;;;;;;40.80;20.10;;;-4.70;99.90;;;;;;5097886;28;20248;-79
2024/01/11 01:49:51;;;;;;;37.27;20.63;;;-4.80;99.90;;;;;;5099430;28;20201;-79
2024/01/11 01:52:18;;;;;;;37.30;20.63;;;-4.80;99.90;;;;;;5097754;28;20202;-78
2024/01/11 01:54:43;;;;;;;32.00;20.47;;;-4.80;99.90;;;;;;5097502;28;20174;-79
2024/01/11 01:57:11;;;;;;;35.43;20.57;;;-4.80;99.90;;;;;;5098674;28;20192;-78
2024/01/11 01:59:38;;;;;;;40.90;19.80;;;-4.80;99.90;;;;;;5097011;28;20180;-79
2024/01/11 02:02:05;;;;;;;39.00;20.27;;;-4.90;99.90;;;;;;5097070;28;20200;-79
2024/01/11 02:04:31;;;;;;;37.53;20.70;;;-4.90;99.90;;;;;;5097110;28;20531;-79
2024/01/11 02:06:58;;;;;;;37.27;20.00;;;-4.90;99.90;;;;;;5096779;28;20214;-78
2024/01/11 02:09:24;;;;;;;36.37;19.93;;;-4.90;99.90;;;;;;5098129;28;20247;-79
2024/01/11 02:11:52;;;;;;;35.63;19.00;;;-4.90;99.90;;;;;;5098829;28;20169;-79
2024/01/11 02:14:18;;;;;;;35.67;19.37;;;-4.90;99.90;;;;;;5098552;28;20177;-79
2024/01/11 02:16:44;;;;;;;36.47;20.47;;;-4.90;99.90;;;;;;5098381;28;20271;-78
2024/01/11 02:19:13;;;;;;;34.27;19.23;;;-4.90;99.90;;;;;;5096882;28;20676;-80
2024/01/11 02:21:43;;;;;;;37.60;20.63;;;-4.90;99.90;;;;;;5097650;28;20171;-79
2024/01/11 02:24:10;;;;;;;35.10;20.07;;;-4.90;99.90;;;;;;5097110;28;20209;-78
2024/01/11 02:26:35;;;;;;;39.30;20.60;;;-4.90;99.90;;;;;;5098121;28;20188;-79
2024/01/11 02:29:01;;;;;;;34.90;20.30;;;-4.90;99.90;;;;;;5098218;28;20252;-78
2024/01/11 02:31:27;;;;;;;34.23;20.37;;;-4.90;99.90;;;;;;5098219;28;20166;-79
2024/01/11 02:33:54;;;;;;;38.87;20.50;;;-4.90;99.90;;;;;;5096581;28;20214;-78
2024/01/11 02:36:20;;;;;;;34.40;20.73;;;-4.90;99.90;;;;;;5097088;28;20653;-78
2024/01/11 02:38:47;;;;;;;42.43;21.87;;;-5.00;99.90;;;;;;5110931;28;20190;-78
2024/01/11 02:41:15;;;;;;;41.83;19.77;;;-5.10;99.90;;;;;;5112001;28;20184;-78
2024/01/11 02:43:48;;;;;;;42.73;22.50;;;-5.00;99.90;;;;;;5098957;28;20235;-79
2024/01/11 02:46:15;;;;;;;37.30;21.53;;;-5.10;99.90;;;;;;5097864;28;20194;-79
2024/01/11 02:48:41;;;;;;;35.73;19.83;;;-5.10;99.90;;;;;;5098830;28;20198;-79
2024/01/11 02:51:06;;;;;;;39.50;20.70;;;-5.10;99.90;;;;;;5096102;28;20178;-79
2024/01/11 02:53:34;;;;;;;40.37;21.80;;;-5.20;99.90;;;;;;5096912;28;20179;-79
2024/01/11 02:56:00;;;;;;;40.03;20.73;;;-5.20;99.90;;;;;;5096279;28;20200;-79
2024/01/11 02:58:26;;;;;;;39.60;20.97;;;-5.20;99.90;;;;;;5096194;28;20185;-78
2024/01/11 03:00:51;;;;;;;36.47;20.87;;;-5.20;99.90;;;;;;5096155;28;20258;-79
2024/01/11 03:03:17;;;;;;;37.73;19.90;;;-5.20;99.90;;;;;;5095626;28;20229;-77
2024/01/11 03:05:42;;;;;;;40.50;22.00;;;-5.20;99.90;;;;;;5097171;28;20214;-79
2024/01/11 03:08:08;;;;;;;41.73;21.60;;;-5.10;99.90;;;;;;5096080;28;20209;-79
2024/01/11 03:10:33;;;;;;;43.73;23.30;;;-5.10;99.90;;;;;;5095398;28;20594;-79
2024/01/11 03:12:59;;;;;;;44.80;22.63;;;-5.10;99.90;;;;;;5098564;28;20170;-79
2024/01/11 03:15:25;;;;;;;38.43;21.87;;;-5.10;99.90;;;;;;5099726;28;20183;-79
2024/01/11 03:17:50;;;;;;;40.07;22.03;;;-5.10;99.90;;;;;;5099590;28;20690;-79
2024/01/11 03:20:19;;;;;;;40.97;22.00;;;-5.10;99.90;;;;;;5098605;28;20178;-79
2024/01/11 03:22:46;;;;;;;41.53;22.27;;;-5.20;99.90;;;;;;5099091;28;20179;-80
2024/01/11 03:25:12;;;;;;;41.00;23.13;;;-5.20;99.90;;;;;;5098386;28;20283;-79
2024/01/11 03:27:37;;;;;;;44.73;23.33;;;-5.20;99.90;;;;;;5096203;28;20254;-78
2024/01/11 03:30:04;;;;;;;41.93;21.87;;;-5.30;99.90;;;;;;5097226;28;20182;-79
2024/01/11 03:32:30;;;;;;;40.53;22.53;;;-5.30;99.90;;;;;;5095168;28;20281;-78
2024/01/11 03:34:55;;;;;;;40.93;22.90;;;-5.30;99.90;;;;;;5097314;28;20682;-77
2024/01/11 03:37:21;;;;;;;48.63;23.77;;;-5.30;99.90;;;;;;5096582;28;20277;-78
2024/01/11 03:39:46;;;;;;;40.50;23.13;;;-5.30;99.90;;;;;;5094797;28;20183;-79
2024/01/11 03:42:12;;;;;;;41.60;22.00;;;-5.30;99.90;;;;;;5095336;28;20201;-78
2024/01/11 03:44:38;;;;;;;42.00;22.70;;;-5.30;99.90;;;;;;5095390;28;20183;-79
2024/01/11 03:47:04;;;;;;;43.83;22.40;;;-5.30;99.90;;;;;;5096539;28;20194;-78
2024/01/11 03:49:29;;;;;;;42.80;23.03;;;-5.30;99.90;;;;;;5093406;28;20262;-79
2024/01/11 03:51:54;;;;;;;39.03;22.53;;;-5.40;99.90;;;;;;5097116;28;20166;-79
2024/01/11 03:54:20;;;;;;;51.43;24.00;;;-5.40;99.90;;;;;;5096971;28;20170;-77
2024/01/11 03:56:46;;;;;;;42.47;23.00;;;-5.40;99.90;;;;;;5095465;28;20209;-78
2024/01/11 03:59:11;;;;;;;41.17;21.90;;;-5.30;99.90;;;;;;5094742;28;20192;-78
2024/01/11 04:01:41;;;;;;;45.13;22.90;;;-5.40;99.90;;;;;;5094736;28;20183;-79
2024/01/11 04:04:06;;;;;;;42.57;22.80;;;-5.40;99.90;;;;;;5095294;28;20292;-78
2024/01/11 04:06:32;;;;;;;41.90;22.30;;;-5.40;99.90;;;;;;5096211;28;20692;-78
2024/01/11 04:08:57;;;;;;;44.70;23.00;;;-5.40;99.90;;;;;;5096145;28;20658;-78
2024/01/11 04:11:26;;;;;;;45.80;22.60;;;-5.40;99.90;;;;;;5094138;28;20194;-79
2024/01/11 04:13:52;;;;;;;41.83;23.63;;;-5.40;99.90;;;;;;5095961;28;20175;-79
2024/01/11 04:16:17;;;;;;;40.87;23.43;;;-5.40;99.90;;;;;;5094325;28;20288;-80
2024/01/11 04:18:43;;;;;;;42.33;23.80;;;-5.50;99.90;;;;;;5096365;28;20179;-79
2024/01/11 04:21:23;;;;;;;47.67;24.00;;;-5.50;99.90;;;;;;5094400;28;20178;-79
2024/01/11 04:23:50;;;;;;;47.17;23.00;;;-5.50;99.90;;;;;;5095636;28;20155;-79
2024/01/11 04:26:15;;;;;;;46.13;23.33;;;-5.50;99.90;;;;;;5094982;28;20198;-79
2024/01/11 04:28:41;;;;;;;40.20;23.93;;;-5.50;99.90;;;;;;5093776;28;20204;-79
2024/01/11 04:31:08;;;;;;;42.37;23.33;;;-5.50;99.90;;;;;;5095826;28;20174;-79
2024/01/11 04:33:34;;;;;;;47.77;24.10;;;-5.50;99.90;;;;;;5095431;28;20521;-79
2024/01/11 04:35:59;;;;;;;42.93;25.13;;;-5.50;99.90;;;;;;5096028;28;20197;-79
2024/01/11 04:38:24;;;;;;;46.43;25.57;;;-5.50;99.90;;;;;;5095997;28;20176;-79
2024/01/11 04:40:50;;;;;;;50.23;24.20;;;-5.40;99.90;;;;;;5096257;28;20186;-79
2024/01/11 04:43:16;;;;;;;48.07;24.73;;;-5.50;99.90;;;;;;5111164;28;20261;-77
2024/01/11 04:45:41;;;;;;;44.63;23.73;;;-5.40;99.90;;;;;;5105592;28;20233;-77
2024/01/11 04:48:07;;;;;;;46.73;25.57;;;-5.50;99.90;;;;;;5093488;28;20673;-77
2024/01/11 04:50:32;;;;;;;46.63;24.83;;;-5.50;99.90;;;;;;5092678;28;20504;-78
2024/01/11 04:52:58;;;;;;;43.37;23.37;;;-5.40;99.90;;;;;;5094098;28;20629;-78
2024/01/11 04:55:23;;;;;;;46.00;24.33;;;-5.40;99.90;;;;;;5094163;28;20178;-77
2024/01/11 04:57:49;;;;;;;48.77;24.03;;;-5.40;99.90;;;;;;5095468;28;20175;-78
2024/01/11 05:00:15;;;;;;;46.37;23.33;;;-5.40;99.90;;;;;;5094335;28;20192;-78
2024/01/11 05:02:40;;;;;;;49.83;25.23;;;-5.50;99.90;;;;;;5096607;28;20171;-78
2024/01/11 05:05:06;;;;;;;43.77;24.03;;;-5.40;99.90;;;;;;5098108;28;20196;-78
2024/01/11 05:07:31;;;;;;;41.97;24.07;;;-5.40;99.90;;;;;;5097700;28;20210;-78
2024/01/11 05:09:57;;;;;;;45.97;25.03;;;-5.40;99.90;;;;;;5095827;28;20293;-77
2024/01/11 05:12:23;;;;;;;43.90;24.40;;;-5.40;99.90;;;;;;5098312;28;20254;-77
2024/01/11 05:14:48;;;;;;;46.07;24.27;;;-5.50;99.90;;;;;;5098348;28;20638;-77
2024/01/11 05:17:14;;;;;;;45.33;24.30;;;-5.50;99.90;;;;;;5098136;28;20222;-80
2024/01/11 05:19:39;;;;;;;46.03;24.23;;;-5.50;99.90;;;;;;5096643;28;20186;-77
2024/01/11 05:22:05;;;;;;;51.50;25.57;;;-5.50;99.90;;;;;;5097601;28;20197;-78
2024/01/11 05:24:30;;;;;;;46.30;24.73;;;-5.50;99.90;;;;;;5095995;28;20174;-78
2024/01/11 05:26:56;;;;;;;42.50;23.87;;;-5.50;99.90;;;;;;5096607;28;20716;-78
2024/01/11 05:29:21;;;;;;;49.97;25.80;;;-5.50;99.90;;;;;;5098414;28;20209;-77
2024/01/11 05:31:47;;;;;;;44.23;23.37;;;-5.60;99.90;;;;;;5097666;28;20614;-77
2024/01/11 05:34:12;;;;;;;45.83;23.87;;;-5.60;99.90;;;;;;5101480;28;20167;-79
2024/01/11 05:36:38;;;;;;;44.87;25.53;;;-5.70;99.90;;;;;;5100189;28;20222;-78
2024/01/11 05:39:04;;;;;;;42.23;23.77;;;-5.60;99.90;;;;;;5100906;28;20193;-78
2024/01/11 05:41:29;;;;;;;42.10;24.63;;;-5.60;99.90;;;;;;5099131;28;20178;-79
2024/01/11 05:43:55;;;;;;;42.10;24.90;;;-5.60;99.90;;;;;;5099116;28;20174;-78
2024/01/11 05:46:21;;;;;;;40.63;22.83;;;-5.50;99.90;;;;;;5100031;28;20596;-77
2024/01/11 05:48:46;;;;;;;45.67;23.87;;;-5.60;99.90;;;;;;5099456;28;20234;-78
2024/01/11 05:51:12;;;;;;;41.97;24.10;;;-5.50;99.90;;;;;;5099189;28;20191;-79
2024/01/11 05:53:37;;;;;;;42.73;24.33;;;-5.60;99.90;;;;;;5099645;28;20200;-77
2024/01/11 05:56:12;;;;;;;44.30;23.87;;;-5.60;99.90;;;;;;5098494;28;20244;-78
2024/01/11 05:58:39;;;;;;;46.33;24.37;;;-5.60;99.90;;;;;;5098813;28;20241;-78
2024/01/11 06:01:04;;;;;;;46.10;25.03;;;-5.60;99.90;;;;;;5096758;28;20175;-78
2024/01/11 06:03:33;;;;;;;43.53;24.40;;;-5.60;99.90;;;;;;5096580;28;20662;-79
2024/01/11 06:05:59;;;;;;;41.53;24.10;;;-5.60;99.90;;;;;;5096937;28;20299;-78
2024/01/11 06:08:25;;;;;;;47.17;25.63;;;-5.60;99.90;;;;;;5098305;28;20192;-78
2024/01/11 06:10:51;;;;;;;50.50;26.47;;;-5.50;99.90;;;;;;5096974;28;20186;-79
2024/01/11 06:13:18;;;;;;;53.63;25.97;;;-5.50;99.90;;;;;;5094993;28;20187;-77
2024/01/11 06:15:44;;;;;;;47.27;25.67;;;-5.50;99.90;;;;;;5096303;28;20638;-77
2024/01/11 06:18:09;;;;;;;44.37;23.83;;;-5.50;99.90;;;;;;5096570;28;20253;-77
2024/01/11 06:20:35;;;;;;;50.07;25.43;;;-5.50;99.90;;;;;;5094749;28;20178;-78
2024/01/11 06:23:00;;;;;;;43.93;25.40;;;-5.50;99.90;;;;;;5096530;28;20229;-77
2024/01/11 06:25:26;;;;;;;48.97;25.47;;;-5.50;99.90;;;;;;5096543;28;20172;-76
2024/01/11 06:27:51;;;;;;;46.37;24.67;;;-5.50;99.90;;;;;;5095764;28;20190;-77
2024/01/11 06:30:17;;;;;;;44.47;24.00;;;-5.50;99.90;;;;;;5094711;28;20575;-77
2024/01/11 06:32:43;;;;;;;44.60;24.93;;;-5.50;99.90;;;;;;5094773;28;20681;-78
2024/01/11 06:35:09;;;;;;;44.50;23.83;;;-5.60;99.90;;;;;;5097230;28;20219;-77
2024/01/11 06:37:34;;;;;;;47.20;25.37;;;-5.60;99.90;;;;;;5096141;28;20194;-78
2024/01/11 06:40:00;;;;;;;45.83;24.10;;;-5.60;99.90;;;;;;5096628;28;20545;-78
2024/01/11 06:42:26;;;;;;;46.27;24.13;;;-5.60;99.90;;;;;;5096931;28;20224;-78
2024/01/11 06:44:51;;;;;;;45.93;24.93;;;-5.60;99.90;;;;;;5095764;28;20214;-78
2024/01/11 06:47:17;;;;;;;44.23;23.77;;;-5.60;99.90;;;;;;5096533;28;20217;-77
2024/01/11 06:49:42;;;;;;;48.17;25.33;;;-5.60;99.90;;;;;;5093912;28;20206;-75
2024/01/11 06:52:08;;;;;;;47.50;23.83;;;-5.70;99.90;;;;;;5094353;28;20265;-75
2024/01/11 06:54:34;;;;;;;47.20;23.97;;;-5.70;99.90;;;;;;5092963;28;20179;-77
2024/01/11 06:57:00;;;;;;;44.03;23.47;;;-5.70;99.90;;;;;;5093549;28;20210;-75
2024/01/11 06:59:25;;;;;;;43.37;24.20;;;-5.70;99.90;;;;;;5094239;28;20170;-76
2024/01/11 07:01:51;;;;;;;40.20;23.27;;;-5.70;99.90;;;;;;5094107;28;20182;-76
2024/01/11 07:04:16;;;;;;;41.97;23.20;;;-5.70;99.90;;;;;;5094838;28;20209;-74
2024/01/11 07:06:42;;;;;;;43.73;23.30;;;-5.70;99.90;;;;;;5091982;28;20227;-75
2024/01/11 07:09:07;;;;;;;48.90;22.70;;;-5.70;99.90;;;;;;5092986;28;20201;-75
2024/01/11 07:11:33;;;;;;;44.67;24.10;;;-5.70;99.90;;;;;;5093947;28;20195;-74
2024/01/11 07:13:59;;;;;;;43.80;24.23;;;-5.80;99.90;;;;;;5093950;28;20170;-74
2024/01/11 07:16:24;;;;;;;42.83;24.30;;;-5.80;99.90;;;;;;5093241;28;20193;-76
2024/01/11 07:18:50;;;;;;;40.50;23.27;;;-5.80;99.90;;;;;;5093528;28;20172;-75
2024/01/11 07:21:32;;;;;;;42.83;23.47;;;-5.80;99.90;;;;;;5093454;28;20210;-75
2024/01/11 07:24:00;;;;;;;45.10;24.37;;;-5.80;99.90;;;;;;5093394;28;20241;-75
2024/01/11 07:26:26;;;;;;;46.77;25.50;;;-5.80;99.90;;;;;;5091579;28;20665;-75
2024/01/11 07:28:54;;;;;;;44.67;24.67;;;-5.80;99.90;;;;;;5091539;28;20203;-75
2024/01/11 07:31:20;;;;;;;42.83;24.10;;;-5.80;99.90;;;;;;5093486;28;20526;-77
2024/01/11 07:33:45;;;;;;;53.07;25.47;;;-5.70;99.90;;;;;;5093405;28;20189;-75
2024/01/11 07:36:11;;;;;;;43.30;24.60;;;-5.80;99.90;;;;;;5091720;28;20581;-75
2024/01/11 07:38:37;;;;;;;52.23;25.53;;;-5.80;99.90;;;;;;5091414;28;20673;-75
2024/01/11 07:41:03;;;;;;;51.23;25.93;;;-5.80;99.90;;;;;;5093149;28;20680;-75
2024/01/11 07:43:28;;;;;;;52.60;25.87;;;-5.80;99.90;;;;;;5091742;28;20173;-76
2024/01/11 07:45:56;;;;;;;47.70;26.03;;;-5.80;99.90;;;;;;5091771;28;20232;-76
2024/01/11 07:48:22;;;;;;;49.67;26.10;;;-5.70;99.90;;;;;;5090898;28;20559;-75
2024/01/11 07:50:48;;;;;;;45.53;24.47;;;-5.80;99.90;;;;;;5093139;28;20194;-76
2024/01/11 07:53:14;;;;;;;49.83;25.70;;;-5.80;99.90;;;;;;5092914;28;20588;-75
2024/01/11 07:55:40;;;;;;;48.40;26.17;;;-5.80;99.90;;;;;;5091580;28;20170;-76
2024/01/11 07:58:06;;;;;;;52.73;26.60;;;-5.80;99.90;;;;;;5090712;28;20178;-76
2024/01/11 08:00:31;;;;;;;48.97;25.77;;;-5.80;99.90;;;;;;5092857;28;20178;-76
2024/01/11 08:02:57;;;;;;;45.80;25.10;;;-5.80;99.90;;;;;;5092742;28;20166;-76
2024/01/11 08:05:22;;;;;;;51.27;27.37;;;-5.80;99.90;;;;;;5092258;28;20174;-81
2024/01/11 08:07:48;;;;;;;43.33;25.77;;;-5.80;99.90;;;;;;5095703;28;20181;-78
2024/01/11 08:10:13;;;;;;;47.67;24.70;;;-5.80;99.90;;;;;;5093187;28;20266;-76
2024/01/11 08:12:39;;;;;;;45.27;26.03;;;-5.70;99.90;;;;;;5092973;28;20314;-77
2024/01/11 08:15:05;;;;;;;46.70;24.43;;;-5.70;99.90;;;;;;5092910;28;20717;-76
2024/01/11 08:17:30;;;;;;;42.10;24.83;;;-5.70;99.90;;;;;;5092720;28;20190;-76
2024/01/11 08:19:56;;;;;;;51.60;25.80;;;-5.60;99.90;;;;;;5092196;28;20259;-77
2024/01/11 08:22:22;;;;;;;45.80;25.17;;;-5.60;99.90;;;;;;5092691;28;20178;-77
2024/01/11 08:24:48;;;;;;;52.73;25.30;;;-5.60;99.90;;;;;;5092477;28;20182;-77
2024/01/11 08:27:17;;;;;;;45.07;25.97;;;-5.60;99.90;;;;;;5092685;28;20252;-77
2024/01/11 08:29:42;;;;;;;52.97;25.47;;;-5.60;99.90;;;;;;5091748;28;20299;-77
2024/01/11 08:32:08;;;;;;;47.83;26.03;;;-5.60;99.90;;;;;;5092348;28;20225;-77
2024/01/11 08:34:34;;;;;;;50.57;24.47;;;-5.60;99.90;;;;;;5091813;28;20249;-77
2024/01/11 08:36:59;;;;;;;50.20;26.87;;;-5.50;99.90;;;;;;5091015;28;20290;-77
2024/01/11 08:39:25;;;;;;;48.80;26.67;;;-5.50;99.90;;;;;;5090675;28;20181;-77
2024/01/11 08:41:50;;;;;;;51.27;28.10;;;-5.50;99.90;;;;;;5092581;28;20694;-76
2024/01/11 08:44:16;;;;;;;49.33;26.33;;;-5.40;99.90;;;;;;5091127;28;20178;-77
2024/01/11 08:46:43;;;;;;;50.43;27.40;;;-5.40;99.90;;;;;;5090215;28;20700;-77
2024/01/11 08:49:09;;;;;;;45.57;25.43;;;-5.40;99.90;;;;;;5092571;28;20328;-77
2024/01/11 08:51:34;;;;;;;48.47;26.07;;;-5.40;99.90;;;;;;5092303;28;20667;-77
2024/01/11 08:54:00;;;;;;;50.77;27.07;;;-5.30;99.90;;;;;;5092241;28;20163;-77
2024/01/11 08:56:26;;;;;;;50.97;26.67;;;-5.20;99.90;;;;;;5090425;28;20707;-76
2024/01/11 08:58:51;;;;;;;52.63;27.63;;;-5.20;99.90;;;;;;5090736;28;20200;-77
2024/01/11 09:01:18;;;;;;;53.07;28.50;;;-5.10;99.90;;;;;;5092156;28;20175;-77
2024/01/11 09:03:43;;;;;;;49.90;25.83;;;-5.00;99.90;;;;;;5090891;28;20178;-77
2024/01/11 09:06:10;;;;;;;48.43;27.27;;;-5.00;99.90;;;;;;5091239;28;20644;-77
2024/01/11 09:08:35;;;;;;;55.60;28.30;;;-4.90;99.90;;;;;;5091006;28;20688;-77
2024/01/11 09:11:01;;;;;;;48.77;27.20;;;-4.90;99.90;;;;;;5090888;28;20182;-77
2024/01/11 09:13:28;;;;;;;44.30;25.10;;;-4.80;99.90;;;;;;5090922;28;20555;-77
2024/01/11 09:15:54;;;;;;;49.13;26.87;;;-4.80;99.90;;;;;;5092393;28;20217;-77
2024/01/11 09:18:20;;;;;;;49.50;28.97;;;-4.80;99.90;;;;;;5092266;28;20242;-77
2024/01/11 09:20:46;;;;;;;46.43;26.43;;;-4.70;99.90;;;;;;5090511;28;20214;-78
2024/01/11 09:23:11;;;;;;;46.83;25.77;;;-4.60;99.90;;;;;;5092038;28;20665;-77
2024/01/11 09:25:37;;;;;;;54.27;27.70;;;-4.60;99.90;;;;;;5092206;28;20249;-77
2024/01/11 09:28:03;;;;;;;54.60;28.30;;;-4.60;99.90;;;;;;5092414;28;20571;-77
2024/01/11 09:30:29;;;;;;;46.00;27.23;;;-4.50;99.90;;;;;;5091016;28;20542;-77
2024/01/11 09:32:55;;;;;;;46.87;26.53;;;-4.40;99.90;;;;;;5090276;28;20196;-77
2024/01/11 09:35:23;;;;;;;49.80;26.90;;;-4.40;99.90;;;;;;5090933;28;20549;-77
2024/01/11 09:37:49;;;;;;;52.17;27.93;;;-4.30;99.90;;;;;;5090842;28;20170;-77
2024/01/11 09:40:14;;;;;;;54.40;27.37;;;-4.30;99.90;;;;;;5091971;28;20172;-77
2024/01/11 09:42:40;;;;;;;47.13;27.73;;;-4.20;99.90;;;;;;5090264;28;20177;-76
2024/01/11 09:45:26;;;;;;;49.60;27.10;;;-4.10;99.90;;;;;;5092974;28;20173;-76
2024/01/11 09:47:52;;;;;;;47.53;26.37;;;-4.10;99.90;;;;;;5094752;28;20208;-76
2024/01/11 09:50:18;;;;;;;46.87;25.17;;;-3.90;99.90;;;;;;5096246;28;20177;-77
2024/01/11 09:52:49;;;;;;;57.70;28.53;;;-3.90;99.90;;;;;;5095287;28;20189;-77
2024/01/11 09:55:16;;;;;;;51.30;28.00;;;-3.90;99.90;;;;;;5096060;28;20491;-77
2024/01/11 09:57:45;;;;;;;50.77;26.80;;;-3.80;99.90;;;;;;5096581;28;20304;-76
2024/01/11 10:00:16;;;;;;;53.80;28.73;;;-3.80;99.90;;;;;;5096114;28;20249;-77
2024/01/11 10:02:41;;;;;;;50.23;26.87;;;-3.70;99.90;;;;;;5095360;28;20210;-78
2024/01/11 10:05:07;;;;;;;49.53;27.27;;;-3.60;99.90;;;;;;5095966;28;20224;-78
2024/01/11 10:07:34;;;;;;;51.10;28.23;;;-3.60;99.90;;;;;;5095899;28;20217;-76
2024/01/11 10:10:00;;;;;;;49.67;27.13;;;-3.60;99.90;;;;;;5094332;28;20243;-77
2024/01/11 10:12:27;;;;;;;54.50;28.60;;;-3.50;99.90;;;;;;5094052;28;20186;-77
2024/01/11 10:14:53;;;;;;;49.90;27.90;;;-3.50;99.90;;;;;;5095805;28;20180;-77
2024/01/11 10:17:19;;;;;;;48.47;28.37;;;-3.40;99.90;;;;;;5094094;28;20752;-76
2024/01/11 10:19:45;;;;;;;58.27;29.67;;;-3.30;99.90;;;;;;5094166;28;20182;-75
2024/01/11 10:22:16;;;;;;;49.13;27.70;;;-3.20;99.90;;;;;;5095175;28;20198;-77
2024/01/11 10:24:42;;;;;;;56.90;28.07;;;-3.10;99.90;;;;;;5094878;28;20183;-75
2024/01/11 10:27:09;;;;;;;53.10;28.37;;;-3.00;99.90;;;;;;5096067;28;20199;-77
2024/01/11 10:29:38;;;;;;;45.37;27.67;;;-2.80;99.90;;;;;;5095971;28;20259;-77
2024/01/11 10:32:04;;;;;;;45.47;26.87;;;-2.90;99.90;;;;;;5095029;28;20196;-78
2024/01/11 10:34:30;;;;;;;46.90;27.17;;;-2.80;99.90;;;;;;5094291;28;20180;-77
2024/01/11 10:36:56;;;;;;;51.17;28.37;;;-2.70;99.90;;;;;;5094177;28;20301;-77
2024/01/11 10:39:26;;;;;;;53.63;27.80;;;-2.60;99.90;;;;;;5095435;28;20185;-79
2024/01/11 10:42:04;;;;;;;50.20;27.70;;;-2.60;99.90;;;;;;5095092;28;20251;-77
2024/01/11 10:44:33;;;;;;;48.17;26.07;;;-2.60;99.90;;;;;;5079195;28;20181;-76
2024/01/11 10:47:01;;;;;;;49.93;26.60;;;-2.50;99.90;;;;;;5088926;28;20589;-77
2024/01/11 10:49:30;;;;;;;53.30;28.33;;;-2.40;99.90;;;;;;5096196;28;20212;-77
2024/01/11 10:52:05;;;;;;;52.87;28.83;;;-2.30;99.90;;;;;;5095835;28;20166;-77
2024/01/11 10:54:34;;;;;;;46.57;26.43;;;-2.20;99.90;;;;;;5094844;28;20174;-77
2024/01/11 10:57:00;;;;;;;45.97;26.87;;;-2.20;99.90;;;;;;5095425;28;20204;-77
2024/01/11 10:59:27;;;;;;;46.43;27.37;;;-2.10;99.90;;;;;;5100144;28;20186;-77
2024/01/11 11:01:58;;;;;;;49.13;26.67;;;-2.10;99.90;;;;;;5098136;28;20247;-77
2024/01/11 11:04:24;;;;;;;46.20;26.00;;;-2.00;99.90;;;;;;5097500;28;20195;-77
2024/01/11 11:06:57;;;;;;;46.20;26.23;;;-2.00;99.90;;;;;;5095489;28;20208;-78
2024/01/11 11:09:24;;;;;;;47.07;26.80;;;-1.90;99.90;;;;;;5096270;28;20270;-78
2024/01/11 11:11:50;;;;;;;48.77;25.70;;;-1.80;99.90;;;;;;5104644;28;20163;-79
2024/01/11 11:14:15;;;;;;;49.10;24.67;;;-1.80;99.90;;;;;;5110733;28;20184;-78
2024/01/11 11:16:42;;;;;;;46.03;25.43;;;-1.70;99.90;;;;;;5109471;28;20277;-79
2024/01/11 11:19:08;;;;;;;49.53;26.07;;;-1.60;99.90;;;;;;5104750;28;20183;-79
2024/01/11 11:21:42;;;;;;;44.93;25.53;;;-1.60;99.90;;;;;;5106937;28;20197;-79
2024/01/11 11:24:08;;;;;;;46.17;25.00;;;-1.50;99.90;;;;;;5104024;28;20189;-81
2024/01/11 11:26:35;;;;;;;44.43;24.50;;;-1.40;99.90;;;;;;5107183;28;20227;-79
2024/01/11 11:29:00;;;;;;;44.23;24.57;;;-1.30;99.90;;;;;;5108699;28;20244;-79
2024/01/11 11:31:43;;;;;;;43.50;24.40;;;-1.30;99.90;;;;;;5099250;28;20174;-79
2024/01/11 11:34:12;;;;;;;40.27;22.47;;;-1.20;99.90;;;;;;5097543;28;20174;-78
2024/01/11 11:36:40;;;;;;;37.27;21.53;;;-1.10;99.90;;;;;;5094510;28;20193;-78
2024/01/11 11:39:05;;;;;;;35.80;21.50;;;-1.00;99.90;;;;;;5092962;28;20194;-78
2024/01/11 11:41:34;;;;;;;40.17;21.83;;;-1.00;99.90;;;;;;5095509;28;20657;-79
2024/01/11 11:44:04;;;;;;;42.70;22.70;;;-1.00;99.90;;;;;;5094595;28;20181;-79
2024/01/11 11:46:31;;;;;;;39.13;21.00;;;-0.90;99.90;;;;;;5094857;28;20285;-78
2024/01/11 11:48:57;;;;;;;34.20;20.50;;;-0.90;99.90;;;;;;5091967;28;20297;-80
2024/01/11 11:51:24;;;;;;;36.07;21.13;;;-0.90;99.90;;;;;;5093725;28;20289;-80
2024/01/11 11:53:51;;;;;;;38.83;21.40;;;-0.80;99.90;;;;;;5094110;28;20223;-78
2024/01/11 11:56:19;;;;;;;36.30;21.73;;;-0.80;99.90;;;;;;5092336;28;20193;-77
2024/01/11 11:58:46;;;;;;;36.63;21.23;;;-0.70;99.90;;;;;;5092793;28;20185;-78
2024/01/11 12:01:19;;;;;;;37.47;21.60;;;-0.60;99.90;;;;;;5092639;28;20231;-76
2024/01/11 12:03:51;;;;;;;37.60;21.73;;;-0.50;99.90;;;;;;5092238;28;20170;-76
2024/01/11 12:06:18;;;;;;;40.03;21.43;;;-0.60;99.90;;;;;;5090885;28;20205;-77
2024/01/11 12:08:45;;;;;;;34.87;21.60;;;-0.50;99.90;;;;;;5091964;28;20193;-78
2024/01/11 12:11:19;;;;;;;31.57;19.83;;;-0.40;99.90;;;;;;5088730;28;20241;-78
2024/01/11 12:13:45;;;;;;;37.23;20.40;;;-0.40;99.90;;;;;;5092622;28;20166;-77
2024/01/11 12:16:11;;;;;;;33.63;20.30;;;-0.40;99.90;;;;;;5091375;28;20234;-79
2024/01/11 12:18:37;;;;;;;34.00;19.57;;;-0.30;99.90;;;;;;5095209;28;20186;-77
2024/01/11 12:21:03;;;;;;;36.67;19.67;;;-0.30;99.90;;;;;;5092460;28;20229;-79
2024/01/11 12:23:33;;;;;;;36.50;21.40;;;-0.20;99.90;;;;;;5092299;28;20200;-78